Time;durP1;ratioP1;P1;durP2;ratioP2;P2;SDS_P1;SDS_P2;PMS_P1;PMS_P2;Temp;Humidity;BMP_temperature;BMP_pressure;BME280_temperature;BME280_humidity;BME280_pressure;Samples;Min_cycle;Max_cycle;Signal;HPM_P1;HPM_P2
2021/04/24 00:05:25;;;;;;;15.18;9.07;;;;;;;;;;5110580;27;20381;-63
2021/04/24 00:07:55;;;;;;;15.63;9.43;;;;;;;;;;5108813;28;20020;-63
2021/04/24 00:12:46;;;;;;;15.52;8.38;;;;;;;;;;5110649;27;20442;-64
2021/04/24 00:17:21;;;;;;;15.27;7.25;;;;;;;;;;5110655;27;20434;-64
2021/04/24 00:21:09;;;;;;;15.30;6.90;;;;;;;;;;5110556;27;20960;-64
2021/04/24 00:23:35;;;;;;;14.57;8.70;;;;;;;;;;5110157;28;20050;-65
2021/04/24 00:26:01;;;;;;;12.57;7.10;;;;;;;;;;5110508;28;20016;-65
2021/04/24 00:28:27;;;;;;;13.65;8.02;;;;;;;;;;5108661;28;20020;-65
2021/04/24 00:30:53;;;;;;;15.48;7.70;;;;;;;;;;5110512;28;20023;-65
2021/04/24 00:34:09;;;;;;;13.48;7.93;;;;;;;;;;5110911;27;20887;-64
2021/04/24 00:36:35;;;;;;;15.65;7.72;;;;;;;;;;5110124;28;20472;-65
2021/04/24 00:39:02;;;;;;;15.00;7.45;;;;;;;;;;5110496;28;20015;-65
2021/04/24 00:43:30;;;;;;;14.25;7.85;;;;;;;;;;5110180;27;20388;-65
2021/04/24 00:45:56;;;;;;;14.23;8.20;;;;;;;;;;5109215;28;20031;-65
2021/04/24 00:48:22;;;;;;;14.23;8.35;;;;;;;;;;5110424;28;20080;-64
2021/04/24 00:50:48;;;;;;;14.93;8.02;;;;;;;;;;5110105;28;20024;-64
2021/04/24 00:53:14;;;;;;;17.13;7.60;;;;;;;;;;5110573;28;20077;-65
2021/04/24 00:55:42;;;;;;;12.70;6.70;;;;;;;;;;5109156;28;20038;-65
2021/04/24 00:58:13;;;;;;;15.27;7.45;;;;;;;;;;5109878;28;20035;-65
2021/04/24 01:00:40;;;;;;;15.60;7.53;;;;;;;;;;5110304;28;20027;-65
2021/04/24 01:03:06;;;;;;;16.80;6.70;;;;;;;;;;5110136;28;20538;-64
2021/04/24 01:05:34;;;;;;;11.55;6.93;;;;;;;;;;5109704;28;20031;-65
2021/04/24 01:08:00;;;;;;;13.90;7.18;;;;;;;;;;5110113;28;20379;-65
2021/04/24 01:10:30;;;;;;;12.15;6.40;;;;;;;;;;5109797;28;20020;-64
2021/04/24 01:12:56;;;;;;;12.18;7.43;;;;;;;;;;5110211;28;20024;-65
2021/04/24 01:15:23;;;;;;;12.38;6.88;;;;;;;;;;5110041;28;20049;-65
2021/04/24 01:17:49;;;;;;;16.65;7.47;;;;;;;;;;5109468;28;20027;-64
2021/04/24 01:20:16;;;;;;;14.30;6.65;;;;;;;;;;5109925;28;20027;-64
2021/04/24 01:22:43;;;;;;;13.43;6.75;;;;;;;;;;5109724;28;20042;-65
2021/04/24 01:25:11;;;;;;;16.38;8.10;;;;;;;;;;5108033;28;20023;-65
2021/04/24 01:27:38;;;;;;;13.50;7.43;;;;;;;;;;5109794;28;20020;-65
2021/04/24 01:30:06;;;;;;;15.57;7.05;;;;;;;;;;5109704;28;20028;-65
2021/04/24 01:32:32;;;;;;;13.30;7.32;;;;;;;;;;5109514;28;20030;-65
2021/04/24 01:34:58;;;;;;;11.48;5.95;;;;;;;;;;5109727;28;20024;-64
2021/04/24 01:37:24;;;;;;;15.52;7.45;;;;;;;;;;5109522;28;20108;-64
2021/04/24 01:39:51;;;;;;;13.52;6.60;;;;;;;;;;5109130;28;20022;-64
2021/04/24 01:42:17;;;;;;;14.45;5.97;;;;;;;;;;5109145;28;20052;-64
2021/04/24 01:44:43;;;;;;;11.98;5.72;;;;;;;;;;5109421;28;20020;-65
2021/04/24 01:47:09;;;;;;;11.30;6.32;;;;;;;;;;5108953;28;20531;-65
2021/04/24 01:49:35;;;;;;;12.27;5.97;;;;;;;;;;5109278;28;20019;-65
2021/04/24 01:52:01;;;;;;;8.50;4.57;;;;;;;;;;5109457;28;20102;-65
2021/04/24 01:54:28;;;;;;;11.90;5.93;;;;;;;;;;5097578;28;20051;-65
2021/04/24 01:56:56;;;;;;;10.05;6.10;;;;;;;;;;5095524;28;20028;-65
2021/04/24 01:59:23;;;;;;;13.25;6.65;;;;;;;;;;5095484;28;20020;-65
2021/04/24 02:01:51;;;;;;;9.80;5.30;;;;;;;;;;5094979;28;20085;-64
2021/04/24 02:04:18;;;;;;;11.73;5.25;;;;;;;;;;5095372;28;20153;-65
2021/04/24 02:06:44;;;;;;;12.00;6.05;;;;;;;;;;5093684;28;20020;-65
2021/04/24 02:09:12;;;;;;;10.23;5.75;;;;;;;;;;5094295;28;20020;-64
2021/04/24 02:11:56;;;;;;;11.98;5.55;;;;;;;;;;5095523;28;20023;-65
2021/04/24 02:14:22;;;;;;;10.38;5.38;;;;;;;;;;5095160;28;20028;-64
2021/04/24 02:16:49;;;;;;;11.10;5.85;;;;;;;;;;5095234;28;20174;-65
2021/04/24 02:19:15;;;;;;;10.48;5.55;;;;;;;;;;5093806;28;20016;-65
2021/04/24 02:21:42;;;;;;;9.88;5.53;;;;;;;;;;5093317;28;20024;-64
2021/04/24 02:24:08;;;;;;;11.68;5.28;;;;;;;;;;5095077;28;20031;-65
2021/04/24 02:26:35;;;;;;;12.02;6.13;;;;;;;;;;5093717;28;20376;-65
2021/04/24 02:29:01;;;;;;;10.23;5.20;;;;;;;;;;5093267;28;20424;-65
2021/04/24 02:31:28;;;;;;;12.80;5.75;;;;;;;;;;5095010;28;20545;-65
2021/04/24 02:33:54;;;;;;;16.02;5.60;;;;;;;;;;5095181;28;20020;-65
2021/04/24 02:36:20;;;;;;;14.23;5.75;;;;;;;;;;5094405;28;20383;-64
2021/04/24 02:38:53;;;;;;;13.80;5.53;;;;;;;;;;5093523;28;20020;-65
2021/04/24 02:41:20;;;;;;;9.23;5.40;;;;;;;;;;5094425;28;20055;-65
2021/04/24 02:43:46;;;;;;;10.25;5.68;;;;;;;;;;5094372;28;20020;-64
2021/04/24 02:46:13;;;;;;;15.07;5.72;;;;;;;;;;5094677;28;20095;-64
2021/04/24 02:48:39;;;;;;;12.80;5.47;;;;;;;;;;5094665;28;20024;-65
2021/04/24 02:51:06;;;;;;;15.98;5.72;;;;;;;;;;5092999;28;20118;-65
2021/04/24 02:53:32;;;;;;;9.45;5.35;;;;;;;;;;5094741;28;20084;-65
2021/04/24 02:55:59;;;;;;;16.40;6.03;;;;;;;;;;5094199;28;20464;-65
2021/04/24 02:58:25;;;;;;;12.93;5.85;;;;;;;;;;5094487;28;20099;-65
2021/04/24 03:00:51;;;;;;;13.20;5.82;;;;;;;;;;5094380;28;20020;-65
2021/04/24 03:03:18;;;;;;;13.27;5.93;;;;;;;;;;5093858;28;20040;-65
2021/04/24 03:05:44;;;;;;;11.90;5.45;;;;;;;;;;5093347;28;20013;-65
2021/04/24 03:08:11;;;;;;;12.75;6.00;;;;;;;;;;5094190;28;20039;-65
2021/04/24 03:10:38;;;;;;;14.85;6.13;;;;;;;;;;5093903;28;20451;-64
2021/04/24 03:13:05;;;;;;;10.27;4.82;;;;;;;;;;5094325;28;20028;-64
2021/04/24 03:15:31;;;;;;;14.32;5.07;;;;;;;;;;5094067;28;20087;-65
2021/04/24 03:17:57;;;;;;;13.50;5.25;;;;;;;;;;5093686;28;20027;-65
2021/04/24 03:20:24;;;;;;;13.40;5.30;;;;;;;;;;5092602;28;20024;-65
2021/04/24 03:22:51;;;;;;;10.25;4.97;;;;;;;;;;5092589;28;20032;-65
2021/04/24 03:25:17;;;;;;;9.82;5.07;;;;;;;;;;5093514;28;20024;-65
2021/04/24 03:27:43;;;;;;;11.93;5.18;;;;;;;;;;5093884;28;20468;-65
2021/04/24 03:30:11;;;;;;;8.48;5.05;;;;;;;;;;5094196;28;20031;-65
2021/04/24 03:32:37;;;;;;;12.43;5.22;;;;;;;;;;5093551;28;20028;-65
2021/04/24 03:35:04;;;;;;;9.98;4.72;;;;;;;;;;5093815;28;20016;-65
2021/04/24 03:37:30;;;;;;;11.30;5.40;;;;;;;;;;5093654;28;20047;-65
2021/04/24 03:39:57;;;;;;;13.73;5.55;;;;;;;;;;5093181;28;20101;-64
2021/04/24 03:42:23;;;;;;;9.68;4.85;;;;;;;;;;5093271;28;20093;-65
2021/04/24 03:44:49;;;;;;;10.32;4.75;;;;;;;;;;5093556;28;20020;-65
2021/04/24 03:47:15;;;;;;;10.98;5.70;;;;;;;;;;5093330;28;20376;-64
2021/04/24 03:49:41;;;;;;;11.23;4.97;;;;;;;;;;5092147;28;20020;-65
2021/04/24 03:52:08;;;;;;;13.55;5.35;;;;;;;;;;5094091;28;20012;-65
2021/04/24 03:54:34;;;;;;;12.82;4.95;;;;;;;;;;5092127;28;20028;-64
2021/04/24 03:57:00;;;;;;;12.35;5.20;;;;;;;;;;5093247;28;20480;-64
2021/04/24 03:59:27;;;;;;;11.32;5.30;;;;;;;;;;5092889;28;20081;-65
2021/04/24 04:01:53;;;;;;;10.25;5.40;;;;;;;;;;5091875;28;20518;-65
2021/04/24 04:04:19;;;;;;;10.07;5.53;;;;;;;;;;5093487;28;20031;-65
2021/04/24 04:06:46;;;;;;;10.65;5.53;;;;;;;;;;5092797;28;20498;-65
2021/04/24 04:09:12;;;;;;;11.60;6.18;;;;;;;;;;5091795;28;20028;-65
2021/04/24 04:11:38;;;;;;;11.55;5.63;;;;;;;;;;5093295;28;20020;-66
2021/04/24 04:14:04;;;;;;;13.98;5.75;;;;;;;;;;5093131;28;20070;-65
2021/04/24 04:16:31;;;;;;;10.88;5.55;;;;;;;;;;5091514;28;20048;-65
2021/04/24 04:18:57;;;;;;;14.40;6.28;;;;;;;;;;5092961;28;20361;-65
2021/04/24 04:21:23;;;;;;;13.13;5.93;;;;;;;;;;5092458;28;20023;-65
2021/04/24 04:23:49;;;;;;;14.43;6.20;;;;;;;;;;5092880;28;20032;-65
2021/04/24 04:26:16;;;;;;;11.05;6.47;;;;;;;;;;5091634;28;20492;-65
2021/04/24 04:28:43;;;;;;;13.07;5.13;;;;;;;;;;5092453;28;20020;-65
2021/04/24 04:31:09;;;;;;;10.00;4.75;;;;;;;;;;5093078;28;20091;-65
2021/04/24 04:33:35;;;;;;;14.50;5.32;;;;;;;;;;5092819;28;20430;-65
2021/04/24 04:36:05;;;;;;;9.00;4.53;;;;;;;;;;5092471;28;20058;-65
2021/04/24 04:38:31;;;;;;;13.13;5.47;;;;;;;;;;5091464;28;20050;-65
2021/04/24 04:40:58;;;;;;;12.77;6.20;;;;;;;;;;5092737;28;20494;-65
2021/04/24 04:43:24;;;;;;;13.73;5.90;;;;;;;;;;5092118;28;20054;-65
2021/04/24 04:45:50;;;;;;;15.73;6.00;;;;;;;;;;5092722;28;20024;-65
2021/04/24 04:48:16;;;;;;;10.82;5.18;;;;;;;;;;5091339;28;20020;-65
2021/04/24 04:50:43;;;;;;;11.43;5.80;;;;;;;;;;5092534;28;20020;-65
2021/04/24 04:53:09;;;;;;;11.38;5.20;;;;;;;;;;5092730;28;20201;-65
2021/04/24 04:55:35;;;;;;;14.40;6.05;;;;;;;;;;5091047;28;20162;-64
2021/04/24 04:58:02;;;;;;;14.05;6.53;;;;;;;;;;5092574;28;20020;-65
2021/04/24 05:00:28;;;;;;;12.80;6.30;;;;;;;;;;5092651;28;20504;-65
2021/04/24 05:02:55;;;;;;;11.00;5.40;;;;;;;;;;5092113;28;20036;-65
2021/04/24 05:05:21;;;;;;;11.75;5.82;;;;;;;;;;5091199;28;20020;-65
2021/04/24 05:07:49;;;;;;;15.52;7.40;;;;;;;;;;5092436;28;20483;-65
2021/04/24 05:10:16;;;;;;;13.85;5.78;;;;;;;;;;5090901;28;20024;-65
2021/04/24 05:12:42;;;;;;;13.95;6.30;;;;;;;;;;5092622;28;20081;-65
2021/04/24 05:15:08;;;;;;;16.10;7.78;;;;;;;;;;5092382;28;20357;-65
2021/04/24 05:17:34;;;;;;;12.70;6.72;;;;;;;;;;5092027;28;20102;-66
2021/04/24 05:20:01;;;;;;;15.65;7.85;;;;;;;;;;5092362;28;20017;-65
2021/04/24 05:22:27;;;;;;;16.52;7.65;;;;;;;;;;5092293;28;20028;-65
2021/04/24 05:24:53;;;;;;;22.27;7.15;;;;;;;;;;5090548;28;20027;-65
2021/04/24 05:27:19;;;;;;;13.38;6.25;;;;;;;;;;5092369;28;20018;-66
2021/04/24 05:29:46;;;;;;;14.00;7.65;;;;;;;;;;5095262;28;20016;-65
2021/04/24 05:32:12;;;;;;;15.77;6.82;;;;;;;;;;5095900;28;20035;-65
2021/04/24 05:34:38;;;;;;;14.60;7.72;;;;;;;;;;5096092;28;20016;-65
2021/04/24 05:37:05;;;;;;;19.00;7.72;;;;;;;;;;5096010;28;20028;-65
2021/04/24 05:39:31;;;;;;;14.70;7.50;;;;;;;;;;5095619;28;20479;-65
2021/04/24 05:41:57;;;;;;;16.80;7.85;;;;;;;;;;5095648;28;20057;-65
2021/04/24 05:44:23;;;;;;;19.13;8.73;;;;;;;;;;5095889;28;20093;-65
2021/04/24 05:46:49;;;;;;;17.48;8.30;;;;;;;;;;5094082;28;20016;-66
2021/04/24 05:49:15;;;;;;;19.08;9.90;;;;;;;;;;5095797;28;20027;-65
2021/04/24 05:51:42;;;;;;;15.90;7.75;;;;;;;;;;5095915;28;20043;-65
2021/04/24 05:54:08;;;;;;;23.70;12.45;;;;;;;;;;5095904;28;20035;-65
2021/04/24 05:56:34;;;;;;;20.88;10.82;;;;;;;;;;5094182;28;20024;-65
2021/04/24 05:59:00;;;;;;;15.43;8.82;;;;;;;;;;5094601;28;20028;-65
2021/04/24 06:01:27;;;;;;;13.60;7.50;;;;;;;;;;5095332;28;20073;-65
2021/04/24 06:03:54;;;;;;;19.90;8.27;;;;;;;;;;5095526;28;20024;-65
2021/04/24 06:06:21;;;;;;;14.48;8.15;;;;;;;;;;5095066;28;20027;-65
2021/04/24 06:08:47;;;;;;;17.27;8.02;;;;;;;;;;5094109;28;20392;-65
2021/04/24 06:11:13;;;;;;;16.75;7.82;;;;;;;;;;5094319;28;20484;-66
2021/04/24 06:13:39;;;;;;;13.85;6.78;;;;;;;;;;5095015;28;20028;-65
2021/04/24 06:16:06;;;;;;;20.42;8.57;;;;;;;;;;5095215;28;20153;-66
2021/04/24 06:18:33;;;;;;;13.95;7.25;;;;;;;;;;5095184;28;20020;-65
2021/04/24 06:20:59;;;;;;;19.58;8.82;;;;;;;;;;5094754;28;20389;-66
2021/04/24 06:23:25;;;;;;;17.63;9.27;;;;;;;;;;5095062;28;20498;-65
2021/04/24 06:25:52;;;;;;;14.73;8.50;;;;;;;;;;5093901;28;20104;-66
2021/04/24 06:28:18;;;;;;;15.02;6.65;;;;;;;;;;5093335;28;20023;-66
2021/04/24 06:30:44;;;;;;;14.50;6.47;;;;;;;;;;5095145;28;20023;-65
2021/04/24 06:33:10;;;;;;;16.95;7.00;;;;;;;;;;5095145;28;20504;-65
2021/04/24 06:35:36;;;;;;;14.20;7.45;;;;;;;;;;5094759;28;20028;-65
2021/04/24 06:38:03;;;;;;;25.55;12.10;;;;;;;;;;5094856;28;20465;-65
2021/04/24 06:40:29;;;;;;;25.23;13.05;;;;;;;;;;5093392;28;20048;-65
2021/04/24 06:42:55;;;;;;;32.85;14.32;;;;;;;;;;5094122;28;20101;-65
2021/04/24 06:45:22;;;;;;;25.90;13.30;;;;;;;;;;5093382;28;20020;-66
2021/04/24 06:50:53;;;;;;;16.63;8.68;;;;;;;;;;5110737;27;20377;-65
2021/04/24 06:53:19;;;;;;;13.27;7.90;;;;;;;;;;5110551;28;20480;-65
2021/04/24 06:55:45;;;;;;;18.55;8.40;;;;;;;;;;5110015;28;20094;-65
2021/04/24 07:00:15;;;;;;;13.48;6.43;;;;;;;;;;5085572;28;20883;-64
2021/04/24 07:02:54;;;;;;;19.63;8.98;;;;;;;;;;5172170;27;20307;-64
2021/04/24 07:05:20;;;;;;;18.15;8.73;;;;;;;;;;5132970;27;20402;-64
2021/04/24 07:07:46;;;;;;;16.98;8.13;;;;;;;;;;5151562;27;20022;-64
2021/04/24 07:10:13;;;;;;;15.07;7.35;;;;;;;;;;5151323;27;20018;-64
2021/04/24 07:12:40;;;;;;;15.45;7.18;;;;;;;;;;5151800;27;20027;-64
2021/04/24 07:15:07;;;;;;;16.38;7.30;;;;;;;;;;5132769;27;20015;-65
2021/04/24 07:17:34;;;;;;;15.70;7.93;;;;;;;;;;5150893;27;20064;-65
2021/04/24 07:22:19;;;;;;;23.52;10.57;;;;;;;;;;5172553;27;20116;-65
2021/04/24 07:24:46;;;;;;;20.58;10.02;;;;;;;;;;5151597;27;20050;-65
2021/04/24 07:27:13;;;;;;;24.02;11.55;;;;;;;;;;5151677;27;20041;-65
2021/04/24 07:29:39;;;;;;;25.50;11.55;;;;;;;;;;5132911;27;20029;-64
2021/04/24 07:36:01;;;;;;;20.48;10.43;;;;;;;;;;5110485;27;20446;-65
2021/04/24 07:40:42;;;;;;;13.82;8.35;;;;;;;;;;5110416;27;20414;-64
2021/04/24 07:46:14;;;;;;;16.67;7.45;;;;;;;;;;5110096;27;20377;-65
2021/04/24 07:49:42;;;;;;;17.13;8.50;;;;;;;;;;5110594;27;20791;-66
2021/04/24 07:53:49;;;;;;;19.27;8.30;;;;;;;;;;5110727;27;20389;-66
2021/04/24 07:56:26;;;;;;;14.80;7.22;;;;;;;;;;5131026;27;20161;-65
2021/04/24 07:58:53;;;;;;;14.18;6.72;;;;;;;;;;5129364;28;20110;-65
2021/04/24 08:01:43;;;;;;;10.93;5.78;;;;;;;;;;5110444;27;20381;-64
2021/04/24 08:04:09;;;;;;;11.57;5.70;;;;;;;;;;5110587;28;20028;-65
2021/04/24 08:06:36;;;;;;;12.52;6.88;;;;;;;;;;5110146;28;20024;-65
2021/04/24 08:13:02;;;;;;;14.52;6.45;;;;;;;;;;5069998;28;20389;-65
2021/04/24 08:16:06;;;;;;;21.58;8.88;;;;;;;;;;5110537;27;20357;-65
2021/04/24 08:18:33;;;;;;;15.40;7.82;;;;;;;;;;5126468;28;20032;-65
2021/04/24 08:20:59;;;;;;;25.23;12.63;;;;;;;;;;5125863;28;20479;-65
2021/04/24 08:23:25;;;;;;;25.27;10.88;;;;;;;;;;5109067;28;20468;-64
2021/04/24 08:25:51;;;;;;;21.25;10.43;;;;;;;;;;5110317;28;20379;-64
2021/04/24 08:29:30;;;;;;;16.92;8.95;;;;;;;;;;5110465;27;20786;-64
2021/04/24 08:31:56;;;;;;;20.58;11.10;;;;;;;;;;5109686;28;20365;-64
2021/04/24 08:36:35;;;;;;;19.60;10.35;;;;;;;;;;5110574;27;20782;-65
2021/04/24 08:39:01;;;;;;;18.33;9.20;;;;;;;;;;5109359;28;20055;-66
2021/04/24 08:41:27;;;;;;;17.15;9.70;;;;;;;;;;5110164;28;20027;-65
2021/04/24 08:43:57;;;;;;;18.38;7.95;;;;;;;;;;5110420;28;20067;-65
2021/04/24 08:46:24;;;;;;;16.00;8.25;;;;;;;;;;5110415;28;20093;-65
2021/04/24 08:48:51;;;;;;;15.82;7.45;;;;;;;;;;5110193;28;20496;-67
2021/04/24 08:51:18;;;;;;;18.52;10.60;;;;;;;;;;5110274;28;20430;-66
2021/04/24 08:54:00;;;;;;;15.20;8.55;;;;;;;;;;5110800;27;20377;-66
2021/04/24 08:56:27;;;;;;;15.00;7.97;;;;;;;;;;5110188;28;20058;-65
2021/04/24 08:58:53;;;;;;;16.63;9.25;;;;;;;;;;5110537;28;20052;-65
2021/04/24 09:01:20;;;;;;;21.67;10.95;;;;;;;;;;5110397;28;20032;-65
2021/04/24 09:08:24;;;;;;;17.50;8.25;;;;;;;;;;5172436;27;20310;-66
2021/04/24 09:10:50;;;;;;;25.98;12.73;;;;;;;;;;5151244;27;20470;-64
2021/04/24 09:13:20;;;;;;;25.88;12.32;;;;;;;;;;5151799;27;20526;-65
2021/04/24 09:15:47;;;;;;;17.67;8.50;;;;;;;;;;5151835;27;20027;-65
2021/04/24 09:19:35;;;;;;;16.42;8.30;;;;;;;;;;5110356;27;20783;-66
2021/04/24 09:22:10;;;;;;;13.30;6.88;;;;;;;;;;5109250;28;20024;-66
2021/04/24 09:26:24;;;;;;;14.43;6.65;;;;;;;;;;5110475;27;20438;-66
2021/04/24 09:31:44;;;;;;;18.95;8.45;;;;;;;;;;5110191;27;20385;-66
2021/04/24 09:34:10;;;;;;;16.20;7.20;;;;;;;;;;5109381;28;20537;-66
2021/04/24 09:38:48;;;;;;;21.92;10.60;;;;;;;;;;5110085;27;20377;-67
2021/04/24 09:41:15;;;;;;;18.02;8.00;;;;;;;;;;5110427;28;20028;-66
2021/04/24 09:45:42;;;;;;;18.50;9.57;;;;;;;;;;5069467;28;20391;-65
2021/04/24 09:49:29;;;;;;;14.07;7.25;;;;;;;;;;5110268;27;20450;-65
2021/04/24 09:51:59;;;;;;;18.15;7.88;;;;;;;;;;5110083;28;20024;-65
2021/04/24 09:54:47;;;;;;;17.67;8.10;;;;;;;;;;5111141;28;20027;-65
2021/04/24 09:57:20;;;;;;;16.55;6.63;;;;;;;;;;5110198;28;20028;-65
2021/04/24 09:59:54;;;;;;;19.33;8.50;;;;;;;;;;5109884;28;20046;-65
2021/04/24 10:02:29;;;;;;;19.30;9.30;;;;;;;;;;5110286;28;20034;-65
2021/04/24 10:05:05;;;;;;;19.60;7.60;;;;;;;;;;5108898;28;20059;-65
2021/04/24 10:07:35;;;;;;;12.88;6.45;;;;;;;;;;5108756;28;20068;-65
2021/04/24 10:10:02;;;;;;;11.48;6.22;;;;;;;;;;5108966;28;20020;-65
2021/04/24 10:13:40;;;;;;;17.50;8.90;;;;;;;;;;5110078;27;20434;-65
2021/04/24 10:16:06;;;;;;;18.70;8.13;;;;;;;;;;5110517;28;20046;-65
2021/04/24 10:18:33;;;;;;;21.33;7.75;;;;;;;;;;5110331;28;20471;-65
2021/04/24 10:20:59;;;;;;;14.38;7.53;;;;;;;;;;5108669;28;20031;-65
2021/04/24 10:23:25;;;;;;;12.63;6.15;;;;;;;;;;5110359;28;20035;-65
2021/04/24 10:28:32;;;;;;;14.23;8.63;;;;;;;;;;5110014;27;20388;-65
2021/04/24 10:32:09;;;;;;;10.95;4.72;;;;;;;;;;5069967;28;20908;-65
2021/04/24 10:34:35;;;;;;;10.55;4.88;;;;;;;;;;5069307;28;20025;-65
2021/04/24 10:37:01;;;;;;;13.73;5.78;;;;;;;;;;5070005;28;20041;-66
2021/04/24 10:39:50;;;;;;;11.82;6.28;;;;;;;;;;5110378;27;20385;-65
2021/04/24 10:43:21;;;;;;;13.60;4.90;;;;;;;;;;5110457;27;20385;-66
2021/04/24 10:47:16;;;;;;;13.45;5.95;;;;;;;;;;5110307;27;20380;-65
2021/04/24 10:49:55;;;;;;;12.55;5.65;;;;;;;;;;5110498;28;20024;-64
2021/04/24 10:52:23;;;;;;;12.88;5.40;;;;;;;;;;5110669;28;20028;-65
2021/04/24 10:55:07;;;;;;;13.68;5.05;;;;;;;;;;5109909;28;20020;-66
2021/04/24 10:57:39;;;;;;;11.52;6.47;;;;;;;;;;5110269;28;20023;-66
2021/04/24 11:00:33;;;;;;;14.23;7.25;;;;;;;;;;5110429;27;20381;-65
2021/04/24 11:03:01;;;;;;;24.67;10.25;;;;;;;;;;5110071;28;20375;-65
2021/04/24 11:05:30;;;;;;;14.30;7.20;;;;;;;;;;5110430;28;20065;-65
2021/04/24 11:09:18;;;;;;;8.20;3.88;;;;;;;;;;5110015;27;20783;-64
2021/04/24 11:11:45;;;;;;;15.98;8.10;;;;;;;;;;5110465;28;20374;-64
2021/04/24 11:15:47;;;;;;;14.55;6.68;;;;;;;;;;5110077;27;20389;-64
2021/04/24 11:19:36;;;;;;;12.00;6.93;;;;;;;;;;5151676;27;20937;-65
2021/04/24 11:22:20;;;;;;;17.25;10.18;;;;;;;;;;5130908;28;20041;-64
2021/04/24 11:24:46;;;;;;;12.48;5.70;;;;;;;;;;5112520;28;20023;-65
2021/04/24 11:28:59;;;;;;;15.88;9.30;;;;;;;;;;5049933;28;20965;-63
2021/04/24 11:31:44;;;;;;;17.87;9.13;;;;;;;;;;5049713;28;20437;-64
2021/04/24 11:34:27;;;;;;;13.88;8.10;;;;;;;;;;5049767;28;20338;-64
2021/04/24 11:37:27;;;;;;;18.30;8.77;;;;;;;;;;5048145;28;20033;-65
2021/04/24 11:40:05;;;;;;;16.33;8.60;;;;;;;;;;5049713;28;20110;-64
2021/04/24 11:42:32;;;;;;;15.20;7.55;;;;;;;;;;5049695;28;20025;-65
2021/04/24 11:44:58;;;;;;;17.17;6.82;;;;;;;;;;5047932;28;20074;-65
2021/04/24 11:47:40;;;;;;;13.65;7.63;;;;;;;;;;5048097;28;20068;-65
2021/04/24 11:50:09;;;;;;;13.68;6.97;;;;;;;;;;5049730;28;20029;-65
2021/04/24 11:53:06;;;;;;;15.35;8.27;;;;;;;;;;5110528;27;20373;-65
2021/04/24 11:55:33;;;;;;;12.63;6.47;;;;;;;;;;5110445;28;20020;-65
2021/04/24 11:58:06;;;;;;;12.80;6.82;;;;;;;;;;5109943;28;20034;-64
2021/04/24 12:00:33;;;;;;;15.05;8.18;;;;;;;;;;5110368;28;20046;-64
2021/04/24 12:02:59;;;;;;;19.42;9.77;;;;;;;;;;5110395;28;20483;-64
2021/04/24 12:05:25;;;;;;;14.70;8.18;;;;;;;;;;5108559;28;20020;-64
2021/04/24 12:07:52;;;;;;;11.57;5.85;;;;;;;;;;5110260;28;20551;-65
2021/04/24 12:10:34;;;;;;;11.93;5.95;;;;;;;;;;5110797;27;20385;-64
2021/04/24 12:13:08;;;;;;;9.95;5.28;;;;;;;;;;5110209;28;20523;-65
2021/04/24 12:15:34;;;;;;;14.32;7.88;;;;;;;;;;5109119;28;20023;-65
2021/04/24 12:18:03;;;;;;;16.88;6.65;;;;;;;;;;5110277;28;20024;-65
2021/04/24 12:21:07;;;;;;;10.05;4.95;;;;;;;;;;5109965;27;20462;-64
2021/04/24 12:23:33;;;;;;;10.27;4.55;;;;;;;;;;5110388;28;20437;-65
2021/04/24 12:25:59;;;;;;;11.05;4.57;;;;;;;;;;5110043;28;20077;-64
2021/04/24 12:31:16;;;;;;;10.88;5.60;;;;;;;;;;5110424;27;20433;-66
2021/04/24 12:33:47;;;;;;;9.63;4.20;;;;;;;;;;5109905;28;20032;-64
2021/04/24 12:38:02;;;;;;;10.13;4.20;;;;;;;;;;5110503;27;20378;-64
2021/04/24 12:40:28;;;;;;;18.77;6.28;;;;;;;;;;5110011;28;20024;-66
2021/04/24 12:43:01;;;;;;;11.18;5.40;;;;;;;;;;5110180;28;20395;-64
2021/04/24 12:45:27;;;;;;;;;;;;;;;;;;5109345;28;20031;-64
2021/04/24 12:47:54;;;;;;;11.75;5.38;;;;;;;;;;5109879;28;19907;-64
2021/04/24 13:00:00;;;;;;;12.20;5.00;;;;;;;;;;5110301;27;20383;-64
2021/04/24 13:02:33;;;;;;;11.70;5.65;;;;;;;;;;5110030;28;20458;-64
2021/04/24 13:07:30;;;;;;;9.63;4.60;;;;;;;;;;5131074;27;20320;-64
2021/04/24 13:09:57;;;;;;;16.10;6.85;;;;;;;;;;5110186;28;20036;-64
2021/04/24 13:12:23;;;;;;;14.27;5.72;;;;;;;;;;5092317;28;20430;-63
2021/04/24 13:14:50;;;;;;;9.23;3.78;;;;;;;;;;5110459;28;20022;-64
2021/04/24 13:18:25;;;;;;;14.68;6.28;;;;;;;;;;5110364;27;20446;-64
2021/04/24 13:25:31;;;;;;;20.50;7.22;;;;;;;;;;5110424;27;20389;-66
2021/04/24 13:29:45;;;;;;;14.57;7.57;;;;;;;;;;5110002;27;20617;-64
2021/04/24 13:32:13;;;;;;;16.15;7.68;;;;;;;;;;5110592;28;20430;-66
2021/04/24 13:34:59;;;;;;;12.13;6.22;;;;;;;;;;5110365;27;20437;-65
2021/04/24 13:37:27;;;;;;;14.10;7.25;;;;;;;;;;5110006;28;20028;-65
2021/04/24 13:40:00;;;;;;;9.10;4.25;;;;;;;;;;5110334;28;20069;-65
2021/04/24 13:42:28;;;;;;;14.48;6.15;;;;;;;;;;5109059;28;20023;-65
2021/04/24 13:46:32;;;;;;;13.02;7.60;;;;;;;;;;5110456;27;20434;-64
2021/04/24 13:49:13;;;;;;;9.68;5.40;;;;;;;;;;5110339;28;20032;-66
2021/04/24 13:51:39;;;;;;;11.70;5.95;;;;;;;;;;5110278;28;20030;-64
2021/04/24 13:54:05;;;;;;;16.90;9.18;;;;;;;;;;5109108;28;20089;-64
2021/04/24 13:56:31;;;;;;;9.00;4.95;;;;;;;;;;5110317;28;20020;-64
2021/04/24 13:59:02;;;;;;;9.52;5.30;;;;;;;;;;5109763;28;20047;-64
2021/04/24 14:02:49;;;;;;;11.02;4.88;;;;;;;;;;5110533;27;20442;-65
2021/04/24 14:06:12;;;;;;;11.13;6.53;;;;;;;;;;5069606;27;20388;-64
2021/04/24 14:10:43;;;;;;;13.27;8.20;;;;;;;;;;5069988;28;20387;-64
2021/04/24 14:15:23;;;;;;;19.10;10.80;;;;;;;;;;5110460;27;20377;-65
2021/04/24 14:17:49;;;;;;;19.33;11.40;;;;;;;;;;5110444;28;20043;-65
2021/04/24 14:21:35;;;;;;;13.50;7.05;;;;;;;;;;5049938;28;20392;-66
2021/04/24 14:24:02;;;;;;;12.02;7.40;;;;;;;;;;5048617;28;20021;-64
2021/04/24 14:26:31;;;;;;;20.38;9.65;;;;;;;;;;5049704;28;20056;-66
2021/04/24 14:28:57;;;;;;;17.20;10.93;;;;;;;;;;5049771;28;20072;-65
2021/04/24 14:31:53;;;;;;;19.15;7.75;;;;;;;;;;5111306;27;20377;-65
2021/04/24 14:34:47;;;;;;;11.38;5.63;;;;;;;;;;5110467;27;20312;-64
2021/04/24 14:37:14;;;;;;;11.90;6.78;;;;;;;;;;5110400;28;20106;-64
2021/04/24 14:39:40;;;;;;;15.00;9.10;;;;;;;;;;5109953;28;20030;-65
2021/04/24 14:42:07;;;;;;;16.85;8.15;;;;;;;;;;5110515;28;20100;-65
2021/04/24 14:45:00;;;;;;;7.00;3.63;;;;;;;;;;5110492;27;20353;-65
2021/04/24 14:47:26;;;;;;;7.20;3.13;;;;;;;;;;5110077;28;20107;-65
2021/04/24 14:49:52;;;;;;;7.75;4.60;;;;;;;;;;5110454;28;20099;-65
2021/04/24 14:52:19;;;;;;;9.30;5.47;;;;;;;;;;5110562;28;20024;-66
2021/04/24 14:54:45;;;;;;;16.75;9.23;;;;;;;;;;5109944;28;20016;-65
2021/04/24 14:57:12;;;;;;;20.25;10.10;;;;;;;;;;5110102;28;20030;-65
2021/04/24 15:00:04;;;;;;;15.65;7.78;;;;;;;;;;5110395;27;20415;-65
2021/04/24 15:02:30;;;;;;;21.60;12.02;;;;;;;;;;5109926;28;20024;-65
2021/04/24 15:04:57;;;;;;;20.38;10.85;;;;;;;;;;5110423;28;20032;-65
2021/04/24 15:08:23;;;;;;;21.23;12.18;;;;;;;;;;5069390;28;20465;-65
2021/04/24 15:13:01;;;;;;;9.50;4.63;;;;;;;;;;5070103;28;20391;-67
2021/04/24 15:15:27;;;;;;;10.43;4.45;;;;;;;;;;5069367;28;20031;-65
2021/04/24 15:17:56;;;;;;;13.55;6.03;;;;;;;;;;5069719;28;20032;-66
2021/04/24 15:20:23;;;;;;;11.27;4.85;;;;;;;;;;5068460;28;20112;-65
2021/04/24 15:24:00;;;;;;;8.75;3.97;;;;;;;;;;5119240;27;1024423;-67
2021/04/24 15:29:30;;;;;;;29.48;17.70;;;;;;;;;;5109868;27;20900;-65
2021/04/24 15:31:56;;;;;;;29.45;19.60;;;;;;;;;;5110591;28;20354;-66
2021/04/24 15:34:57;;;;;;;13.95;6.53;;;;;;;;;;5069791;28;20430;-67
2021/04/24 15:37:23;;;;;;;18.88;10.13;;;;;;;;;;5069329;28;20108;-66
2021/04/24 15:40:41;;;;;;;18.15;9.38;;;;;;;;;;5110299;27;20829;-65
2021/04/24 15:43:08;;;;;;;9.60;3.88;;;;;;;;;;5108407;28;20062;-65
2021/04/24 15:45:34;;;;;;;21.60;9.98;;;;;;;;;;5110154;28;20038;-65
2021/04/24 15:48:01;;;;;;;20.98;9.88;;;;;;;;;;5110116;28;20113;-65
2021/04/24 15:50:28;;;;;;;13.23;6.60;;;;;;;;;;5108316;28;20019;-65
2021/04/24 15:52:54;;;;;;;12.95;6.72;;;;;;;;;;5108686;28;20031;-65
2021/04/24 15:56:43;;;;;;;15.13;6.47;;;;;;;;;;5110024;27;20586;-66
2021/04/24 16:00:34;;;;;;;22.45;12.55;;;;;;;;;;5111075;27;20442;-64
2021/04/24 16:03:01;;;;;;;12.95;6.53;;;;;;;;;;5110408;28;20120;-66
2021/04/24 16:06:42;;;;;;;13.07;6.20;;;;;;;;;;5110312;27;20783;-66
2021/04/24 16:09:08;;;;;;;13.32;5.45;;;;;;;;;;5108993;28;20528;-66
2021/04/24 16:11:34;;;;;;;17.10;6.57;;;;;;;;;;5109901;28;20020;-66
2021/04/24 16:14:00;;;;;;;17.80;9.43;;;;;;;;;;5109284;28;20495;-66
2021/04/24 16:16:27;;;;;;;25.98;10.70;;;;;;;;;;5110200;28;20103;-66
2021/04/24 16:19:24;;;;;;;18.13;9.85;;;;;;;;;;5109859;27;20883;-64
2021/04/24 16:22:01;;;;;;;16.38;7.50;;;;;;;;;;5110146;27;20168;-65
2021/04/24 16:25:10;;;;;;;14.00;7.40;;;;;;;;;;5069421;28;20388;-65
2021/04/24 16:27:36;;;;;;;15.73;7.60;;;;;;;;;;5069734;28;20021;-65
2021/04/24 16:30:03;;;;;;;10.38;5.50;;;;;;;;;;5068430;28;20041;-65
2021/04/24 16:32:30;;;;;;;12.70;6.55;;;;;;;;;;5069361;28;20439;-65
2021/04/24 16:34:56;;;;;;;15.63;7.35;;;;;;;;;;5069849;28;20100;-65